createdAt,value
2023-03-14T00:00:38.884Z,87255.00
2023-03-14T00:01:38.854Z,87248.00
2023-03-14T00:02:38.867Z,87248.00
2023-03-14T00:03:38.789Z,87246.00
2023-03-14T00:04:38.754Z,87242.00
2023-03-14T00:05:38.724Z,87232.00
2023-03-14T00:06:38.689Z,87224.00
2023-03-14T00:07:38.669Z,87220.00
2023-03-14T00:08:38.644Z,87220.00
2023-03-14T00:09:38.618Z,87222.00
2023-03-14T00:10:38.548Z,87230.00
2023-03-14T00:11:38.517Z,87228.00
2023-03-14T00:12:38.485Z,87228.00
2023-03-14T00:13:38.451Z,87226.00
2023-03-14T00:14:38.420Z,87224.00
2023-03-14T00:15:38.463Z,87220.00
2023-03-14T00:16:38.373Z,87214.00
2023-03-14T00:17:38.362Z,87210.00
2023-03-14T00:18:38.317Z,87200.00
2023-03-14T00:19:38.301Z,87202.00
2023-03-14T00:20:38.272Z,87202.00
2023-03-14T00:21:38.221Z,87202.00
2023-03-14T00:22:38.197Z,87196.00
2023-03-14T00:23:38.210Z,87202.00
2023-03-14T00:24:38.145Z,87200.00
2023-03-14T00:25:38.135Z,87189.00
2023-03-14T00:26:38.099Z,87176.00
2023-03-14T00:27:38.068Z,87168.00
2023-03-14T00:28:38.035Z,87166.00
2023-03-14T00:29:38.005Z,87156.00
2023-03-14T00:30:37.978Z,87158.00
2023-03-14T00:31:38.008Z,87160.00
2023-03-14T00:32:37.969Z,87168.00
2023-03-14T00:33:37.886Z,87162.00
2023-03-14T00:34:37.852Z,87156.00
2023-03-14T00:35:37.844Z,87154.00
2023-03-14T00:36:37.781Z,87148.00
2023-03-14T00:37:37.761Z,87146.00
2023-03-14T00:38:37.720Z,87146.00
2023-03-14T00:39:37.706Z,87133.00
2023-03-14T00:40:37.638Z,87133.00
2023-03-14T00:41:37.610Z,87129.00
2023-03-14T00:42:37.561Z,87131.00
2023-03-14T00:43:37.559Z,87125.00
2023-03-14T00:44:37.494Z,87131.00
2023-03-14T00:45:37.477Z,87127.00
2023-03-14T00:46:39.580Z,87125.00
2023-03-14T00:47:37.395Z,87123.00
2023-03-14T00:48:37.383Z,87123.00
2023-03-14T00:49:37.335Z,87119.00
2023-03-14T00:50:37.289Z,87121.00
2023-03-14T00:51:37.258Z,87117.00
2023-03-14T00:52:37.228Z,87117.00
2023-03-14T00:53:37.196Z,87115.00
2023-03-14T00:54:37.161Z,87111.00
2023-03-14T00:55:37.136Z,87113.00
2023-03-14T00:56:37.096Z,87115.00
2023-03-14T00:57:37.052Z,87113.00
2023-03-14T00:58:37.034Z,87109.00
2023-03-14T00:59:36.988Z,87099.00
2023-03-14T01:00:36.993Z,87091.00
2023-03-14T01:01:36.998Z,87091.00
2023-03-14T01:02:36.950Z,87085.00
2023-03-14T01:03:36.874Z,87085.00
2023-03-14T01:04:36.849Z,87085.00
2023-03-14T01:05:36.824Z,87085.00
2023-03-14T01:06:36.825Z,87083.00
2023-03-14T01:07:36.764Z,87083.00
2023-03-14T01:08:36.736Z,87078.00
2023-03-14T01:09:36.738Z,87081.00
2023-03-14T01:10:36.674Z,87081.00
2023-03-14T01:11:36.635Z,87085.00
2023-03-14T01:12:36.607Z,87087.00
2023-03-14T01:13:36.586Z,87081.00
2023-03-14T01:14:36.554Z,87083.00
2023-03-14T01:15:36.536Z,87081.00
2023-03-14T01:16:36.638Z,87081.00
2023-03-14T01:17:36.454Z,87085.00
2023-03-14T01:18:36.422Z,87081.00
2023-03-14T01:19:36.413Z,87081.00
2023-03-14T01:20:36.376Z,87076.00
2023-03-14T01:21:36.345Z,87068.00
2023-03-14T01:22:36.315Z,87064.00
2023-03-14T01:23:36.282Z,87064.00
2023-03-14T01:24:36.254Z,87064.00
2023-03-14T01:25:36.213Z,87064.00
2023-03-14T01:26:36.230Z,87062.00
2023-03-14T01:27:36.151Z,87058.00
2023-03-14T01:28:36.138Z,87050.00
2023-03-14T01:29:36.087Z,87040.00
2023-03-14T01:30:36.062Z,87036.00
2023-03-14T01:31:36.049Z,87033.00
2023-03-14T01:32:36.009Z,87034.00
2023-03-14T01:33:35.960Z,87036.00
2023-03-14T01:34:35.922Z,87034.00
2023-03-14T01:35:35.929Z,87029.00
2023-03-14T01:36:35.864Z,87023.00
2023-03-14T01:37:35.841Z,87023.00
2023-03-14T01:38:35.797Z,87017.00
2023-03-14T01:39:35.760Z,87015.00
2023-03-14T01:40:35.744Z,87015.00
2023-03-14T01:41:35.731Z,87011.00
2023-03-14T01:42:35.681Z,87011.00
2023-03-14T01:43:35.752Z,87003.00
2023-03-14T01:44:35.615Z,86993.00
2023-03-14T01:45:35.632Z,86991.00
2023-03-14T01:46:35.577Z,86983.00
2023-03-14T01:47:35.550Z,86981.00
2023-03-14T01:48:35.507Z,86979.00
2023-03-14T01:49:35.471Z,86979.00
2023-03-14T01:50:35.441Z,86979.00
2023-03-14T01:51:35.448Z,86979.00
2023-03-14T01:52:35.392Z,86978.00
2023-03-14T01:53:35.355Z,86972.00
2023-03-14T01:54:35.331Z,86974.00
2023-03-14T01:55:35.289Z,86976.00
2023-03-14T01:56:35.263Z,86974.00
2023-03-14T01:57:35.230Z,86968.00
2023-03-14T01:58:35.214Z,86968.00
2023-03-14T01:59:35.192Z,86966.00
2023-03-14T02:00:35.242Z,86964.00
2023-03-14T02:01:35.159Z,86958.00
2023-03-14T02:02:35.103Z,86954.00
2023-03-14T02:03:35.089Z,86952.00
2023-03-14T02:04:35.028Z,86960.00
2023-03-14T02:05:34.997Z,86954.00
2023-03-14T02:06:34.975Z,86948.00
2023-03-14T02:07:34.939Z,86952.00
2023-03-14T02:08:34.907Z,86954.00
2023-03-14T02:09:34.891Z,86952.00
2023-03-14T02:10:34.854Z,86956.00
2023-03-14T02:11:34.836Z,86948.00
2023-03-14T02:12:34.788Z,86944.00
2023-03-14T02:13:34.753Z,86944.00
2023-03-14T02:14:34.738Z,86942.00
2023-03-14T02:15:34.698Z,86934.00
2023-03-14T02:16:34.730Z,86936.00
2023-03-14T02:17:34.650Z,86944.00
2023-03-14T02:18:34.617Z,86936.00
2023-03-14T02:19:34.601Z,86934.00
2023-03-14T02:20:34.561Z,86938.00
2023-03-14T02:21:34.525Z,86936.00
2023-03-14T02:22:34.497Z,86934.00
2023-03-14T02:23:34.466Z,86934.00
2023-03-14T02:24:34.440Z,86932.00
2023-03-14T02:25:34.390Z,86925.00
2023-03-14T02:26:34.355Z,86925.00
2023-03-14T02:27:34.308Z,86934.00
2023-03-14T02:28:34.274Z,86932.00
2023-03-14T02:29:34.237Z,86932.00
2023-03-14T02:30:34.214Z,86932.00
2023-03-14T02:31:34.253Z,86925.00
2023-03-14T02:32:34.185Z,86938.00
2023-03-14T02:33:34.113Z,86932.00
2023-03-14T02:34:34.075Z,86938.00
2023-03-14T02:35:34.086Z,86938.00
2023-03-14T02:36:34.012Z,86932.00
2023-03-14T02:37:33.990Z,86923.00
2023-03-14T02:38:33.934Z,86921.00
2023-03-14T02:39:33.901Z,86914.00
2023-03-14T02:40:33.870Z,86906.00
2023-03-14T02:41:33.834Z,86898.00
2023-03-14T02:42:33.807Z,86896.00
2023-03-14T02:43:33.777Z,86896.00
2023-03-14T02:44:33.738Z,86892.00
2023-03-14T02:45:33.764Z,86888.00
2023-03-14T02:46:33.682Z,86890.00
2023-03-14T02:47:33.641Z,86892.00
2023-03-14T02:48:33.616Z,86900.00
2023-03-14T02:49:33.593Z,86902.00
2023-03-14T02:50:33.552Z,86896.00
2023-03-14T02:51:33.519Z,86898.00
2023-03-14T02:52:33.492Z,86902.00
2023-03-14T02:53:33.456Z,86902.00
2023-03-14T02:54:33.417Z,86906.00
2023-03-14T02:55:33.377Z,86908.00
2023-03-14T02:56:33.359Z,86906.00
2023-03-14T02:57:33.315Z,86906.00
2023-03-14T02:58:33.285Z,86908.00
2023-03-14T02:59:33.278Z,86908.00
2023-03-14T03:00:33.220Z,86912.00
2023-03-14T03:01:33.166Z,86910.00
2023-03-14T03:02:33.156Z,86908.00
2023-03-14T03:03:33.198Z,86908.00
2023-03-14T03:04:33.073Z,86908.00
2023-03-14T03:05:33.033Z,86906.00
2023-03-14T03:06:33.034Z,86906.00
2023-03-14T03:07:32.974Z,86904.00
2023-03-14T03:08:32.984Z,86906.00
2023-03-14T03:09:32.892Z,86904.00
2023-03-14T03:10:32.865Z,86904.00
2023-03-14T03:11:32.834Z,86902.00
2023-03-14T03:12:32.784Z,86902.00
2023-03-14T03:13:32.768Z,86904.00
2023-03-14T03:14:32.715Z,86902.00
2023-03-14T03:15:32.680Z,86898.00
2023-03-14T03:16:32.736Z,86894.00
2023-03-14T03:17:32.626Z,86896.00
2023-03-14T03:18:32.602Z,86902.00
2023-03-14T03:19:32.527Z,86898.00
2023-03-14T03:20:32.485Z,86896.00
2023-03-14T03:21:32.452Z,86898.00
2023-03-14T03:22:32.414Z,86898.00
2023-03-14T03:23:32.530Z,86906.00
2023-03-14T03:24:32.861Z,86904.00
2023-03-14T03:25:32.309Z,86900.00
2023-03-14T03:26:32.348Z,86904.00
2023-03-14T03:27:32.345Z,86914.00
2023-03-14T03:28:32.336Z,86914.00
2023-03-14T03:29:32.162Z,86910.00
2023-03-14T03:30:32.171Z,86902.00
2023-03-14T03:31:32.079Z,86898.00
2023-03-14T03:32:32.081Z,86896.00
2023-03-14T03:33:32.866Z,86896.00
2023-03-14T03:34:32.024Z,86898.00
2023-03-14T03:35:31.997Z,86896.00
2023-03-14T03:36:31.901Z,86896.00
2023-03-14T03:37:31.882Z,86898.00
2023-03-14T03:38:31.832Z,86898.00
2023-03-14T03:39:31.784Z,86898.00
2023-03-14T03:40:31.760Z,86892.00
2023-03-14T03:41:31.721Z,86896.00
2023-03-14T03:42:31.684Z,86902.00
2023-03-14T03:43:31.656Z,86902.00
2023-03-14T03:44:31.623Z,86900.00
2023-03-14T03:45:31.594Z,86900.00
2023-03-14T03:46:31.589Z,86900.00
2023-03-14T03:47:31.525Z,86900.00
2023-03-14T03:48:31.529Z,86902.00
2023-03-14T03:49:31.481Z,86904.00
2023-03-14T03:50:31.475Z,86908.00
2023-03-14T03:51:31.435Z,86904.00
2023-03-14T03:52:31.401Z,86904.00
2023-03-14T03:53:33.998Z,86904.00
2023-03-14T03:54:31.322Z,86900.00
2023-03-14T03:55:31.300Z,86904.00
2023-03-14T03:56:31.272Z,86910.00
2023-03-14T03:57:31.234Z,86910.00
2023-03-14T03:58:31.228Z,86908.00
2023-03-14T03:59:31.164Z,86912.00
2023-03-14T04:00:31.137Z,86916.00
2023-03-14T04:01:31.105Z,86916.00
2023-03-14T04:02:31.126Z,86918.00
2023-03-14T04:03:31.061Z,86916.00
2023-03-14T04:04:31.044Z,86910.00
2023-03-14T04:05:30.981Z,86906.00
2023-03-14T04:06:31.000Z,86896.00
2023-03-14T04:07:31.059Z,86892.00
2023-03-14T04:08:30.879Z,86890.00
2023-03-14T04:09:30.865Z,86884.00
2023-03-14T04:10:30.871Z,86886.00
2023-03-14T04:11:30.809Z,86882.00
2023-03-14T04:12:30.790Z,86882.00
2023-03-14T04:13:30.750Z,86882.00
2023-03-14T04:14:30.720Z,86880.00
2023-03-14T04:15:30.666Z,86876.00
2023-03-14T04:16:30.638Z,86876.00
2023-03-14T04:17:30.629Z,86874.00
2023-03-14T04:18:30.573Z,86874.00
2023-03-14T04:19:30.563Z,86876.00
2023-03-14T04:20:30.502Z,86872.00
2023-03-14T04:21:30.459Z,86872.00
2023-03-14T04:22:30.424Z,86874.00
2023-03-14T04:23:30.389Z,86876.00
2023-03-14T04:24:30.368Z,86871.00
2023-03-14T04:25:30.398Z,86865.00
2023-03-14T04:26:30.300Z,86869.00
2023-03-14T04:27:30.228Z,86863.00
2023-03-14T04:28:30.199Z,86853.00
2023-03-14T04:29:30.162Z,86865.00
2023-03-14T04:30:30.128Z,86871.00
2023-03-14T04:31:30.103Z,86857.00
2023-03-14T04:32:30.085Z,86855.00
2023-03-14T04:33:30.031Z,86865.00
2023-03-14T04:34:29.999Z,86863.00
2023-03-14T04:35:29.962Z,86863.00
2023-03-14T04:36:29.928Z,86865.00
2023-03-14T04:37:29.879Z,86861.00
2023-03-14T04:38:29.869Z,86865.00
2023-03-14T04:39:29.834Z,86867.00
2023-03-14T04:40:29.778Z,86861.00
2023-03-14T04:41:29.730Z,86859.00
2023-03-14T04:42:29.696Z,86867.00
2023-03-14T04:43:29.645Z,86869.00
2023-03-14T04:44:29.612Z,86872.00
2023-03-14T04:45:29.583Z,86872.00
2023-03-14T04:46:29.579Z,86880.00
2023-03-14T04:47:29.500Z,86882.00
2023-03-14T04:48:29.456Z,86872.00
2023-03-14T04:49:29.421Z,86871.00
2023-03-14T04:50:29.413Z,86876.00
2023-03-14T04:51:29.349Z,86871.00
2023-03-14T04:52:29.313Z,86871.00
2023-03-14T04:53:31.203Z,86869.00
2023-03-14T04:54:29.277Z,86874.00
2023-03-14T04:55:29.209Z,86871.00
2023-03-14T04:56:29.159Z,86872.00
2023-03-14T04:57:29.111Z,86869.00
2023-03-14T04:58:29.076Z,86871.00
2023-03-14T04:59:29.067Z,86863.00
2023-03-14T05:00:29.019Z,86863.00
2023-03-14T05:01:29.034Z,86857.00
2023-03-14T05:02:28.974Z,86861.00
2023-03-14T05:03:28.913Z,86857.00
2023-03-14T05:04:28.890Z,86861.00
2023-03-14T05:05:28.859Z,86855.00
2023-03-14T05:06:28.799Z,86853.00
2023-03-14T05:07:28.750Z,86843.00
2023-03-14T05:08:28.717Z,86835.00
2023-03-14T05:09:28.685Z,86833.00
2023-03-14T05:10:28.660Z,86829.00
2023-03-14T05:11:28.630Z,86827.00
2023-03-14T05:12:28.591Z,86823.00
2023-03-14T05:13:28.532Z,86823.00
2023-03-14T05:14:28.498Z,86823.00
2023-03-14T05:15:28.494Z,86817.00
2023-03-14T05:16:28.528Z,86813.00
2023-03-14T05:17:28.427Z,86809.00
2023-03-14T05:18:28.363Z,86815.00
2023-03-14T05:19:28.360Z,86819.00
2023-03-14T05:20:28.287Z,86823.00
2023-03-14T05:21:28.255Z,86825.00
2023-03-14T05:22:28.231Z,86821.00
2023-03-14T05:23:28.193Z,86817.00
2023-03-14T05:24:28.198Z,86813.00
2023-03-14T05:25:28.134Z,86808.00
2023-03-14T05:26:28.094Z,86806.00
2023-03-14T05:27:28.064Z,86808.00
2023-03-14T05:28:28.035Z,86806.00
2023-03-14T05:29:28.003Z,86804.00
2023-03-14T05:30:27.961Z,86800.00
2023-03-14T05:31:28.011Z,86804.00
2023-03-14T05:32:27.937Z,86798.00
2023-03-14T05:33:27.865Z,86798.00
2023-03-14T05:34:27.839Z,86802.00
2023-03-14T05:35:27.802Z,86790.00
2023-03-14T05:36:27.797Z,86784.00
2023-03-14T05:37:27.737Z,86782.00
2023-03-14T05:38:27.713Z,86782.00
2023-03-14T05:39:27.669Z,86788.00
2023-03-14T05:40:27.644Z,86786.00
2023-03-14T05:41:27.635Z,86786.00
2023-03-14T05:42:27.559Z,86778.00
2023-03-14T05:43:27.589Z,86774.00
2023-03-14T05:44:27.502Z,86774.00
2023-03-14T05:45:27.519Z,86770.00
2023-03-14T05:46:27.430Z,86768.00
2023-03-14T05:47:27.398Z,86770.00
2023-03-14T05:48:27.377Z,86772.00
2023-03-14T05:49:27.339Z,86776.00
2023-03-14T05:50:27.292Z,86776.00
2023-03-14T05:51:27.267Z,86778.00
2023-03-14T05:52:27.241Z,86776.00
2023-03-14T05:53:27.202Z,86774.00
2023-03-14T05:54:27.174Z,86774.00
2023-03-14T05:55:27.156Z,86772.00
2023-03-14T05:56:27.102Z,86770.00
2023-03-14T05:57:27.088Z,86764.00
2023-03-14T05:58:27.065Z,86759.00
2023-03-14T05:59:27.021Z,86757.00
2023-03-14T06:00:26.992Z,86757.00
2023-03-14T06:01:26.970Z,86753.00
2023-03-14T06:02:27.011Z,86751.00
2023-03-14T06:03:26.933Z,86749.00
2023-03-14T06:04:26.868Z,86745.00
2023-03-14T06:05:26.808Z,86741.00
2023-03-14T06:06:26.776Z,86745.00
2023-03-14T06:07:26.730Z,86749.00
2023-03-14T06:08:26.719Z,86747.00
2023-03-14T06:09:26.685Z,86745.00
2023-03-14T06:10:26.624Z,86743.00
2023-03-14T06:11:26.579Z,86739.00
2023-03-14T06:12:26.543Z,86741.00
2023-03-14T06:13:26.503Z,86741.00
2023-03-14T06:14:26.466Z,86741.00
2023-03-14T06:15:26.452Z,86739.00
2023-03-14T06:16:26.440Z,86739.00
2023-03-14T06:17:26.346Z,86737.00
2023-03-14T06:18:26.301Z,86739.00
2023-03-14T06:19:26.268Z,86737.00
2023-03-14T06:20:26.236Z,86737.00
2023-03-14T06:21:26.235Z,86733.00
2023-03-14T06:22:26.168Z,86733.00
2023-03-14T06:23:26.131Z,86729.00
2023-03-14T06:24:26.105Z,86727.00
2023-03-14T06:25:26.068Z,86729.00
2023-03-14T06:26:26.050Z,86729.00
2023-03-14T06:27:25.994Z,86731.00
2023-03-14T06:28:26.340Z,86729.00
2023-03-14T06:29:25.907Z,86731.00
2023-03-14T06:30:26.453Z,86733.00
2023-03-14T06:31:25.899Z,86731.00
2023-03-14T06:32:25.905Z,86733.00
2023-03-14T06:33:25.783Z,86737.00
2023-03-14T06:34:25.756Z,86739.00
2023-03-14T06:35:25.746Z,86741.00
2023-03-14T06:36:25.695Z,86745.00
2023-03-14T06:37:25.660Z,86743.00
2023-03-14T06:38:26.434Z,86751.00
2023-03-14T06:39:25.700Z,86761.00
2023-03-14T06:40:25.532Z,86762.00
2023-03-14T06:41:25.533Z,86764.00
2023-03-14T06:42:25.460Z,86766.00
2023-03-14T06:43:25.594Z,86776.00
2023-03-14T06:44:25.387Z,86778.00
2023-03-14T06:45:25.374Z,86784.00
2023-03-14T06:46:25.436Z,86782.00
2023-03-14T06:47:25.311Z,86780.00
2023-03-14T06:48:25.259Z,86782.00
2023-03-14T06:49:25.214Z,86790.00
2023-03-14T06:50:25.178Z,86782.00
2023-03-14T06:51:25.170Z,86780.00
2023-03-14T06:52:25.467Z,86776.00
2023-03-14T06:53:25.951Z,86778.00
2023-03-14T06:54:25.085Z,86784.00
2023-03-14T06:55:25.032Z,86786.00
2023-03-14T06:56:24.999Z,86786.00
2023-03-14T06:57:24.972Z,86792.00
2023-03-14T06:58:24.932Z,86792.00
2023-03-14T06:59:24.958Z,86794.00
2023-03-14T07:00:24.917Z,86792.00
2023-03-14T07:01:24.959Z,86790.00
2023-03-14T07:02:35.981Z,86794.00
2023-03-14T07:03:25.754Z,86794.00
2023-03-14T07:04:24.852Z,86794.00
2023-03-14T07:05:24.711Z,86792.00
2023-03-14T07:06:24.651Z,86794.00
2023-03-14T07:07:24.950Z,86800.00
2023-03-14T07:08:24.584Z,86800.00
2023-03-14T07:09:24.572Z,86802.00
2023-03-14T07:10:24.570Z,86802.00
2023-03-14T07:11:24.527Z,86802.00
2023-03-14T07:12:24.477Z,86802.00
2023-03-14T07:13:24.467Z,86804.00
2023-03-14T07:14:24.415Z,86804.00
2023-03-14T07:15:24.385Z,86802.00
2023-03-14T07:16:24.358Z,86802.00
2023-03-14T07:17:24.323Z,86806.00
2023-03-14T07:18:24.287Z,86806.00
2023-03-14T07:19:24.273Z,86808.00
2023-03-14T07:20:24.233Z,86809.00
2023-03-14T07:21:24.213Z,86811.00
2023-03-14T07:22:24.182Z,86811.00
2023-03-14T07:23:24.161Z,86808.00
2023-03-14T07:24:24.117Z,86809.00
2023-03-14T07:25:24.087Z,86808.00
2023-03-14T07:26:24.050Z,86808.00
2023-03-14T07:27:24.031Z,86804.00
2023-03-14T07:28:23.995Z,86806.00
2023-03-14T07:29:23.958Z,86804.00
2023-03-14T07:30:23.943Z,86804.00
2023-03-14T07:31:23.940Z,86800.00
2023-03-14T07:32:23.908Z,86800.00
2023-03-14T07:33:23.830Z,86804.00
2023-03-14T07:34:23.793Z,86808.00
2023-03-14T07:35:23.749Z,86809.00
2023-03-14T07:36:23.706Z,86811.00
2023-03-14T07:37:23.673Z,86813.00
2023-03-14T07:38:23.740Z,86815.00
2023-03-14T07:39:23.596Z,86813.00
2023-03-14T07:40:23.576Z,86811.00
2023-03-14T07:41:23.534Z,86813.00
2023-03-14T07:42:23.511Z,86815.00
2023-03-14T07:43:23.494Z,86815.00
2023-03-14T07:44:23.442Z,86819.00
2023-03-14T07:45:24.944Z,86819.00
2023-03-14T07:46:23.424Z,86817.00
2023-03-14T07:47:23.341Z,86817.00
2023-03-14T07:48:23.285Z,86811.00
2023-03-14T07:49:23.257Z,86813.00
2023-03-14T07:50:23.205Z,86815.00
2023-03-14T07:51:23.150Z,86811.00
2023-03-14T07:52:23.101Z,86815.00
2023-03-14T07:53:23.067Z,86815.00
2023-03-14T07:54:23.038Z,86811.00
2023-03-14T07:55:22.957Z,86811.00
2023-03-14T07:56:22.906Z,86811.00
2023-03-14T07:57:22.916Z,86808.00
2023-03-14T07:58:22.969Z,86806.00
2023-03-14T07:59:22.782Z,86804.00
2023-03-14T08:00:22.757Z,86796.00
2023-03-14T08:01:22.656Z,86798.00
2023-03-14T08:02:22.633Z,86796.00
2023-03-14T08:03:22.591Z,86798.00
2023-03-14T08:04:22.525Z,86796.00
2023-03-14T08:05:22.558Z,86794.00
2023-03-14T08:06:22.493Z,86790.00
2023-03-14T08:07:22.427Z,86792.00
2023-03-14T08:08:22.569Z,86792.00
2023-03-14T08:09:22.295Z,86792.00
2023-03-14T08:10:23.023Z,86796.00
2023-03-14T08:11:22.988Z,86798.00
2023-03-14T08:12:22.282Z,86800.00
2023-03-14T08:13:22.233Z,86798.00
2023-03-14T08:14:22.063Z,86796.00
2023-03-14T08:15:22.025Z,86794.00
2023-03-14T08:16:22.029Z,86792.00
2023-03-14T08:17:21.912Z,86790.00
2023-03-14T08:18:21.859Z,86790.00
2023-03-14T08:19:21.833Z,86790.00
2023-03-14T08:20:21.794Z,86796.00
2023-03-14T08:21:21.725Z,86790.00
2023-03-14T08:22:21.671Z,86792.00
2023-03-14T08:23:21.642Z,86794.00
2023-03-14T08:24:21.587Z,86792.00
2023-03-14T08:25:21.596Z,86792.00
2023-03-14T08:26:21.504Z,86794.00
2023-03-14T08:27:21.431Z,86794.00
2023-03-14T08:28:21.384Z,86794.00
2023-03-14T08:29:21.338Z,86792.00
2023-03-14T08:30:21.281Z,86792.00
2023-03-14T08:31:21.293Z,86794.00
2023-03-14T08:32:21.304Z,86792.00
2023-03-14T08:33:21.125Z,86794.00
2023-03-14T08:34:21.123Z,86794.00
2023-03-14T08:35:21.134Z,86790.00
2023-03-14T08:36:23.829Z,86792.00
2023-03-14T08:37:26.698Z,86790.00
2023-03-14T08:38:21.914Z,86790.00
2023-03-14T08:39:20.964Z,86790.00
2023-03-14T08:40:20.792Z,86792.00
2023-03-14T08:41:20.711Z,86792.00
2023-03-14T08:42:20.670Z,86796.00
2023-03-14T08:43:20.626Z,86794.00
2023-03-14T08:44:21.028Z,86796.00
2023-03-14T08:45:20.566Z,86796.00
2023-03-14T08:46:20.535Z,86794.00
2023-03-14T08:47:20.553Z,86800.00
2023-03-14T08:48:20.405Z,86800.00
2023-03-14T08:49:20.391Z,86802.00
2023-03-14T08:50:20.316Z,86802.00
2023-03-14T08:51:20.262Z,86796.00
2023-03-14T08:52:20.243Z,86792.00
2023-03-14T08:53:20.206Z,86794.00
2023-03-14T08:54:20.172Z,86794.00
2023-03-14T08:55:20.083Z,86794.00
2023-03-14T08:56:20.032Z,86796.00
2023-03-14T08:57:19.983Z,86800.00
2023-03-14T08:58:19.954Z,86798.00
2023-03-14T08:59:19.882Z,86798.00
2023-03-14T09:00:19.848Z,86796.00
2023-03-14T09:01:19.940Z,86798.00
2023-03-14T09:02:19.785Z,86800.00
2023-03-14T09:03:19.732Z,86796.00
2023-03-14T09:04:19.724Z,86802.00
2023-03-14T09:05:19.602Z,86806.00
2023-03-14T09:06:19.550Z,86802.00
2023-03-14T09:07:19.525Z,86802.00
2023-03-14T09:08:19.478Z,86800.00
2023-03-14T09:09:19.439Z,86798.00
2023-03-14T09:10:19.376Z,86800.00
2023-03-14T09:11:19.367Z,86800.00
2023-03-14T09:12:19.302Z,86800.00
2023-03-14T09:13:19.239Z,86802.00
2023-03-14T09:14:20.489Z,86804.00
2023-03-14T09:15:19.487Z,86806.00
2023-03-14T09:16:19.411Z,86806.00
2023-03-14T09:17:19.307Z,86802.00
2023-03-14T09:18:19.252Z,86802.00
2023-03-14T09:19:19.209Z,86802.00
2023-03-14T09:20:19.147Z,86804.00
2023-03-14T09:21:19.085Z,86804.00
2023-03-14T09:22:19.024Z,86806.00
2023-03-14T09:23:18.973Z,86809.00
2023-03-14T09:24:18.917Z,86809.00
2023-03-14T09:25:18.892Z,86809.00
2023-03-14T09:26:18.819Z,86808.00
2023-03-14T09:27:18.827Z,86808.00
2023-03-14T09:28:18.716Z,86808.00
2023-03-14T09:29:18.653Z,86813.00
2023-03-14T09:30:18.636Z,86813.00
2023-03-14T09:31:18.632Z,86811.00
2023-03-14T09:32:18.608Z,86813.00
2023-03-14T09:33:18.463Z,86815.00
2023-03-14T09:34:18.629Z,86819.00
2023-03-14T09:35:18.396Z,86821.00
2023-03-14T09:36:18.286Z,86821.00
2023-03-14T09:37:18.255Z,86819.00
2023-03-14T09:38:18.199Z,86821.00
2023-03-14T09:39:18.127Z,86825.00
2023-03-14T09:40:18.115Z,86823.00
2023-03-14T09:41:18.031Z,86823.00
2023-03-14T09:42:17.973Z,86823.00
2023-03-14T09:43:17.932Z,86825.00
2023-03-14T09:44:17.896Z,86825.00
2023-03-14T09:45:17.861Z,86831.00
2023-03-14T09:46:17.855Z,86831.00
2023-03-14T09:47:17.788Z,86827.00
2023-03-14T09:48:17.825Z,86829.00
2023-03-14T09:49:17.722Z,86835.00
2023-03-14T09:50:17.902Z,86835.00
2023-03-14T09:51:17.661Z,86835.00
2023-03-14T09:52:17.624Z,86833.00
2023-03-14T09:53:17.644Z,86835.00
2023-03-14T09:54:17.560Z,86833.00
2023-03-14T09:55:17.528Z,86837.00
2023-03-14T09:56:17.499Z,86835.00
2023-03-14T09:57:17.499Z,86835.00
2023-03-14T09:58:17.475Z,86835.00
2023-03-14T09:59:17.441Z,86835.00
2023-03-14T10:00:17.423Z,86835.00
2023-03-14T10:01:17.417Z,86837.00
2023-03-14T10:02:17.333Z,86835.00
2023-03-14T10:03:17.339Z,86833.00
2023-03-14T10:04:17.307Z,86837.00
2023-03-14T10:05:17.270Z,86837.00
2023-03-14T10:06:17.235Z,86837.00
2023-03-14T10:07:17.236Z,86835.00
2023-03-14T10:08:17.169Z,86837.00
2023-03-14T10:09:17.188Z,86837.00
2023-03-14T10:10:17.104Z,86835.00
2023-03-14T10:11:17.092Z,86835.00
2023-03-14T10:12:17.089Z,86837.00
2023-03-14T10:13:17.015Z,86835.00
2023-03-14T10:14:16.973Z,86837.00
2023-03-14T10:15:16.969Z,86841.00
2023-03-14T10:16:16.932Z,86841.00
2023-03-14T10:17:16.878Z,86845.00
2023-03-14T10:18:16.871Z,86845.00
2023-03-14T10:19:16.817Z,86841.00
2023-03-14T10:20:16.811Z,86839.00
2023-03-14T10:21:16.784Z,86841.00
2023-03-14T10:22:16.750Z,86839.00
2023-03-14T10:23:16.714Z,86839.00
2023-03-14T10:24:16.678Z,86837.00
2023-03-14T10:25:16.654Z,86839.00
2023-03-14T10:26:16.615Z,86837.00
2023-03-14T10:27:16.993Z,86837.00
2023-03-14T10:28:16.573Z,86839.00
2023-03-14T10:29:16.529Z,86835.00
2023-03-14T10:30:16.558Z,86835.00
2023-03-14T10:31:16.591Z,86835.00
2023-03-14T10:32:16.459Z,86835.00
2023-03-14T10:33:16.428Z,86837.00
2023-03-14T10:34:16.393Z,86839.00
2023-03-14T10:35:16.383Z,86841.00
2023-03-14T10:36:17.721Z,86839.00
2023-03-14T10:37:16.376Z,86841.00
2023-03-14T10:38:16.309Z,86845.00
2023-03-14T10:39:16.300Z,86839.00
2023-03-14T10:40:16.274Z,86839.00
2023-03-14T10:41:16.244Z,86837.00
2023-03-14T10:42:16.245Z,86835.00
2023-03-14T10:43:16.222Z,86837.00
2023-03-14T10:44:16.180Z,86835.00
2023-03-14T10:45:17.033Z,86841.00
2023-03-14T10:46:16.218Z,86837.00
2023-03-14T10:47:16.151Z,86833.00
2023-03-14T10:48:16.090Z,86831.00
2023-03-14T10:49:16.082Z,86827.00
2023-03-14T10:50:16.060Z,86829.00
2023-03-14T10:51:16.088Z,86821.00
2023-03-14T10:52:15.983Z,86817.00
2023-03-14T10:53:15.927Z,86823.00
2023-03-14T10:54:15.916Z,86811.00
2023-03-14T10:55:15.855Z,86808.00
2023-03-14T10:56:15.855Z,86808.00
2023-03-14T10:57:15.794Z,86808.00
2023-03-14T10:58:15.767Z,86811.00
2023-03-14T10:59:15.734Z,86811.00
2023-03-14T11:00:15.773Z,86815.00
2023-03-14T11:01:16.087Z,86811.00
2023-03-14T11:02:15.608Z,86811.00
2023-03-14T11:03:15.595Z,86817.00
2023-03-14T11:04:15.559Z,86817.00
2023-03-14T11:05:15.485Z,86821.00
2023-03-14T11:06:15.482Z,86813.00
2023-03-14T11:07:15.393Z,86817.00
2023-03-14T11:08:15.345Z,86817.00
2023-03-14T11:09:15.319Z,86819.00
2023-03-14T11:10:15.271Z,86815.00
2023-03-14T11:11:15.255Z,86811.00
2023-03-14T11:12:15.186Z,86811.00
2023-03-14T11:13:15.144Z,86809.00
2023-03-14T11:14:15.118Z,86806.00
2023-03-14T11:15:15.085Z,86802.00
2023-03-14T11:16:15.063Z,86798.00
2023-03-14T11:17:14.976Z,86798.00
2023-03-14T11:18:14.947Z,86794.00
2023-03-14T11:19:14.979Z,86792.00
2023-03-14T11:20:15.054Z,86792.00
2023-03-14T11:21:14.844Z,86790.00
2023-03-14T11:22:14.794Z,86784.00
2023-03-14T11:23:14.768Z,86782.00
2023-03-14T11:24:14.747Z,86774.00
2023-03-14T11:25:14.688Z,86772.00
2023-03-14T11:26:14.686Z,86772.00
2023-03-14T11:27:14.607Z,86768.00
2023-03-14T11:28:14.557Z,86768.00
2023-03-14T11:29:14.528Z,86761.00
2023-03-14T11:30:14.540Z,86762.00
2023-03-14T11:31:14.540Z,86762.00
2023-03-14T11:32:14.399Z,86762.00
2023-03-14T11:33:14.352Z,86761.00
2023-03-14T11:34:14.323Z,86759.00
2023-03-14T11:35:14.332Z,86751.00
2023-03-14T11:36:14.313Z,86761.00
2023-03-14T11:37:14.219Z,86755.00
2023-03-14T11:38:14.191Z,86755.00
2023-03-14T11:39:14.127Z,86755.00
2023-03-14T11:40:14.270Z,86749.00
2023-03-14T11:41:14.085Z,86755.00
2023-03-14T11:42:14.101Z,86751.00
2023-03-14T11:43:14.026Z,86751.00
2023-03-14T11:44:13.957Z,86749.00